Time;durP1;ratioP1;P1;durP2;ratioP2;P2;SDS_P1;SDS_P2;PMS_P1;PMS_P2;Temp;Humidity;BMP_temperature;BMP_pressure;BME280_temperature;BME280_humidity;BME280_pressure;Samples;Min_cycle;Max_cycle;Signal;HPM_P1;HPM_P2
2022/08/14 00:01:33;;;;;;;12.00;4.10;;;;;;;17.76;87.17;100064.34;104964;1274;74553;-65
2022/08/14 00:04:23;;;;;;;12.00;3.70;;;;;;;17.74;87.31;100060.90;104651;1274;70172;-67
2022/08/14 00:07:22;;;;;;;11.90;3.60;;;;;;;17.74;87.63;100058.30;104831;1274;73462;-67
2022/08/14 00:10:16;;;;;;;10.50;3.80;;;;;;;17.72;87.65;100053.13;104761;1275;60467;-65
2022/08/14 00:13:29;;;;;;;12.70;3.90;;;;;;;17.70;87.71;100050.94;104944;1274;60559;-64
2022/08/14 00:16:17;;;;;;;8.70;3.30;;;;;;;17.67;87.48;100045.34;104694;1274;74730;-66
2022/08/14 00:19:25;;;;;;;9.80;3.30;;;;;;;17.64;87.47;100043.13;104908;1274;68199;-64
2022/08/14 00:22:17;;;;;;;10.20;3.10;;;;;;;17.60;87.62;100039.84;104727;1274;74521;-64
2022/08/14 00:25:27;;;;;;;9.80;3.60;;;;;;;17.53;87.59;100036.98;104989;1274;60393;-66
2022/08/14 00:28:29;;;;;;;7.60;3.60;;;;;;;17.47;87.70;100037.08;104728;1274;61082;-67
2022/08/14 00:31:22;;;;;;;9.40;3.40;;;;;;;17.43;87.94;100040.26;104963;1274;73705;-64
2022/08/14 00:34:30;;;;;;;11.70;3.50;;;;;;;17.38;88.23;100040.93;104626;1274;68317;-66
2022/08/14 00:37:34;;;;;;;10.20;3.50;;;;;;;17.35;88.39;100037.15;104914;1274;72117;-68
2022/08/14 00:40:25;;;;;;;8.90;3.70;;;;;;;17.31;88.56;100032.14;104705;1274;61124;-66
2022/08/14 00:43:21;;;;;;;12.60;3.40;;;;;;;17.28;88.70;100036.02;104897;1274;61168;-64
2022/08/14 00:46:12;;;;;;;8.40;2.90;;;;;;;17.26;89.23;100038.77;104529;1275;73345;-68
2022/08/14 00:49:20;;;;;;;8.60;3.00;;;;;;;17.24;89.78;100037.98;104928;1274;69582;-65
2022/08/14 00:52:13;;;;;;;7.90;2.90;;;;;;;17.24;90.31;100035.27;104698;1274;73445;-66
2022/08/14 00:55:07;;;;;;;7.30;3.00;;;;;;;17.21;90.23;100036.51;104585;1274;60620;-67
2022/08/14 01:01:19;;;;;;;11.60;3.30;;;;;;;17.15;90.61;100032.98;104892;1275;74849;-64
2022/08/14 01:04:10;;;;;;;9.40;3.10;;;;;;;17.12;90.68;100033.29;104744;1274;66144;-65
2022/08/14 01:07:21;;;;;;;10.10;3.80;;;;;;;17.10;90.85;100029.89;104744;1274;73247;-65
2022/08/14 01:10:11;;;;;;;9.30;3.40;;;;;;;17.09;91.05;100025.54;104765;1274;60505;-65
2022/08/14 01:13:00;;;;;;;8.80;3.20;;;;;;;17.07;91.16;100022.48;104580;1274;61564;-65
2022/08/14 01:15:56;;;;;;;9.50;3.10;;;;;;;17.07;91.76;100019.26;104828;1274;75463;-63
2022/08/14 01:21:58;;;;;;;8.30;3.00;;;;;;;17.13;93.45;100014.40;104720;1274;74406;-66
2022/08/14 01:24:48;;;;;;;11.40;3.00;;;;;;;17.13;93.34;100013.60;104712;1274;60699;-61
2022/08/14 01:27:42;;;;;;;10.90;3.20;;;;;;;17.16;93.80;100014.91;104756;1274;60494;-67
2022/08/14 01:30:44;;;;;;;7.70;3.20;;;;;;;17.19;93.93;100010.45;104802;1272;74598;-65
2022/08/14 01:33:40;;;;;;;11.90;3.40;;;;;;;17.23;94.45;100010.39;104808;1274;68355;-61
2022/08/14 01:36:49;;;;;;;9.10;3.10;;;;;;;17.25;93.86;100015.44;104730;1274;73244;-63
2022/08/14 01:39:37;;;;;;;8.90;2.90;;;;;;;17.24;93.60;100011.95;104466;1275;60578;-59
2022/08/14 01:42:30;;;;;;;9.30;2.90;;;;;;;17.23;93.78;100007.58;104716;1274;60550;-60
2022/08/14 01:45:31;;;;;;;11.90;3.50;;;;;;;17.20;93.47;100008.98;104788;1274;75616;-59
2022/08/14 01:48:32;;;;;;;8.20;3.10;;;;;;;17.16;93.32;100012.39;104753;1274;66338;-60
2022/08/14 01:51:27;;;;;;;9.40;3.40;;;;;;;17.10;93.22;100012.48;104676;1275;73470;-62
2022/08/14 01:54:20;;;;;;;11.10;3.60;;;;;;;17.05;93.46;100014.21;104587;1274;60666;-64
2022/08/14 01:57:10;;;;;;;10.40;3.50;;;;;;;17.00;94.13;100011.36;104892;1274;60496;-65
2022/08/14 01:59:58;;;;;;;10.40;3.30;;;;;;;16.97;94.91;100008.80;104541;1274;74413;-67
2022/08/14 02:02:46;;;;;;;8.90;3.10;;;;;;;16.97;95.99;100010.81;104758;1274;68734;-65
2022/08/14 02:05:40;;;;;;;10.60;3.60;;;;;;;16.98;96.38;100014.27;104699;1274;73395;-63
2022/08/14 02:08:31;;;;;;;8.40;2.90;;;;;;;16.94;96.72;100006.70;104862;1274;61382;-64
2022/08/14 02:11:24;;;;;;;10.30;3.20;;;;;;;16.99;97.43;100016.17;104690;1274;61051;-64
2022/08/14 02:14:13;;;;;;;13.00;3.40;;;;;;;16.99;97.80;100011.37;104767;1274;74216;-61
2022/08/14 02:17:21;;;;;;;11.60;3.60;;;;;;;16.99;97.93;100010.29;104824;1274;68786;-65
2022/08/14 02:20:12;;;;;;;11.70;3.50;;;;;;;16.98;98.10;100011.80;104726;1274;73729;-64
2022/08/14 02:23:01;;;;;;;7.90;3.40;;;;;;;16.99;98.44;100005.63;104847;1275;60581;-63
2022/08/14 02:25:49;;;;;;;13.20;3.50;;;;;;;17.00;98.59;100006.70;104769;1274;60486;-65
2022/08/14 02:28:42;;;;;;;9.70;3.30;;;;;;;17.01;98.30;100003.54;104802;1274;74386;-64
2022/08/14 02:31:54;;;;;;;12.00;3.50;;;;;;;17.00;98.09;99998.84;104794;1274;68546;-64
2022/08/14 02:34:45;;;;;;;10.80;3.50;;;;;;;16.98;97.96;99997.08;104673;1274;74418;-64
2022/08/14 02:37:33;;;;;;;9.50;3.10;;;;;;;16.96;97.70;99994.83;104689;1274;60495;-62
2022/08/14 02:40:36;;;;;;;9.50;3.10;;;;;;;16.91;97.35;99995.70;104943;1274;62095;-62
2022/08/14 02:43:28;;;;;;;11.00;3.50;;;;;;;16.88;97.38;99995.31;104834;1274;74545;-64
2022/08/14 02:46:24;;;;;;;10.10;3.60;;;;;;;16.85;97.55;99995.20;104739;1274;68609;-65
2022/08/14 02:49:25;;;;;;;9.00;3.50;;;;;;;16.82;97.22;99989.63;104671;1274;74401;-65
2022/08/14 02:52:21;;;;;;;11.70;3.70;;;;;;;16.79;97.56;99994.62;104854;1274;60393;-66
2022/08/14 02:55:31;;;;;;;9.90;3.50;;;;;;;16.77;98.00;99996.46;104652;1276;60440;-63
2022/08/14 02:58:22;;;;;;;12.10;4.10;;;;;;;16.76;98.55;99994.77;104666;1277;73809;-63
2022/08/14 03:01:21;;;;;;;10.00;3.50;;;;;;;16.75;99.13;99994.13;104856;1274;67460;-65
2022/08/14 03:04:13;;;;;;;11.10;3.40;;;;;;;16.75;99.03;99991.14;104702;1274;73440;-64
2022/08/14 03:07:04;;;;;;;10.60;3.50;;;;;;;16.75;99.36;99989.67;104651;1274;60546;-63
2022/08/14 03:09:54;;;;;;;10.60;3.00;;;;;;;16.76;99.65;99984.13;104817;1274;60531;-66
2022/08/14 03:13:04;;;;;;;8.40;3.50;;;;;;;16.78;99.74;99985.20;104877;1274;73262;-64
2022/08/14 03:16:09;;;;;;;11.20;3.20;;;;;;;16.78;99.74;99985.41;104682;1274;68493;-64
2022/08/14 03:19:13;;;;;;;10.20;3.60;;;;;;;16.80;100.00;99989.31;104867;1274;73383;-64
2022/08/14 03:22:07;;;;;;;12.10;3.40;;;;;;;16.81;100.00;99982.40;104529;1276;60509;-65
2022/08/14 03:25:05;;;;;;;11.10;3.20;;;;;;;16.83;100.00;99982.54;104651;1276;60521;-63
2022/08/14 03:28:13;;;;;;;11.00;3.20;;;;;;;16.84;100.00;99982.92;104085;1279;74041;-66
2022/08/14 03:31:22;;;;;;;12.40;3.50;;;;;;;16.86;100.00;99983.66;104367;1279;65865;-64
2022/08/14 03:34:14;;;;;;;12.90;4.60;;;;;;;16.89;100.00;99980.91;104468;1279;73445;-63
2022/08/14 03:37:22;;;;;;;8.60;3.80;;;;;;;16.90;100.00;99983.08;104187;1279;60656;-64
2022/08/14 03:40:30;;;;;;;11.60;3.70;;;;;;;16.92;100.00;99983.41;104192;1279;60572;-65
2022/08/14 03:43:18;;;;;;;10.50;3.70;;;;;;;16.93;100.00;99983.31;104198;1279;73729;-65
2022/08/14 03:46:10;;;;;;;9.50;3.40;;;;;;;16.95;100.00;99981.98;104588;1276;68648;-67
2022/08/14 03:49:23;;;;;;;11.40;3.40;;;;;;;16.98;100.00;99977.92;104614;1276;71757;-64
2022/08/14 03:52:16;;;;;;;9.10;3.30;;;;;;;17.00;100.00;99976.95;104616;1274;60465;-64
2022/08/14 03:55:24;;;;;;;8.80;3.70;;;;;;;17.04;100.00;99973.77;104796;1274;60512;-66
2022/08/14 03:58:14;;;;;;;10.30;3.70;;;;;;;17.05;100.00;99970.21;104590;1274;72908;-65
2022/08/14 04:01:24;;;;;;;10.40;3.50;;;;;;;17.07;100.00;99967.46;104554;1274;68679;-64
2022/08/14 04:04:16;;;;;;;10.70;3.50;;;;;;;17.10;100.00;99963.80;104710;1274;73407;-66
2022/08/14 04:07:05;;;;;;;9.00;3.90;;;;;;;17.12;100.00;99966.94;104877;1275;60501;-64
2022/08/14 04:09:53;;;;;;;11.40;3.60;;;;;;;17.14;100.00;99962.23;104672;1274;60462;-65
2022/08/14 04:12:45;;;;;;;11.40;3.60;;;;;;;17.18;100.00;99964.02;104617;1274;74619;-62
2022/08/14 04:15:38;;;;;;;11.20;4.00;;;;;;;17.23;100.00;99963.67;104795;1274;65826;-65
2022/08/14 04:18:51;;;;;;;9.80;3.60;;;;;;;17.28;100.00;99965.44;104854;1274;73479;-65
2022/08/14 04:21:40;;;;;;;18.50;4.30;;;;;;;17.34;100.00;99971.25;104831;1274;60774;-67
2022/08/14 04:24:48;;;;;;;11.80;3.90;;;;;;;17.39;100.00;99967.63;104958;1273;60529;-63
2022/08/14 04:27:39;;;;;;;12.00;3.50;;;;;;;17.44;100.00;99966.02;104629;1274;75515;-67
2022/08/14 04:30:47;;;;;;;9.60;3.90;;;;;;;17.49;100.00;99965.29;104590;1274;68348;-65
2022/08/14 04:33:36;;;;;;;10.20;3.50;;;;;;;17.54;100.00;99963.25;104632;1274;74559;-66
2022/08/14 04:36:24;;;;;;;11.50;3.40;;;;;;;17.59;100.00;99959.73;104572;1274;60536;-65
2022/08/14 04:45:41;;;;;;;14.50;4.00;;;;;;;17.83;100.00;99957.86;104813;1274;69155;-65
2022/08/14 04:48:30;;;;;;;11.80;4.60;;;;;;;17.90;100.00;99951.53;104572;1274;72574;-67
2022/08/14 04:51:31;;;;;;;12.90;4.30;;;;;;;18.00;100.00;99953.63;104721;1274;60512;-65
2022/08/14 04:54:39;;;;;;;13.40;3.90;;;;;;;18.11;100.00;99952.81;104561;1274;60595;-64
2022/08/14 04:57:28;;;;;;;15.20;3.70;;;;;;;18.20;100.00;99949.54;104602;1274;73638;-64
2022/08/14 05:00:16;;;;;;;10.90;3.90;;;;;;;18.31;100.00;99949.49;104586;1274;69609;-66
2022/08/14 05:03:06;;;;;;;9.40;3.80;;;;;;;18.45;100.00;99949.94;104652;1274;72952;-66
2022/08/14 05:05:57;;;;;;;14.80;3.80;;;;;;;18.58;100.00;99945.77;104458;1275;60373;-66
2022/08/14 05:08:45;;;;;;;12.80;3.40;;;;;;;18.73;99.77;99944.09;104471;1274;60466;-65
2022/08/14 05:11:47;;;;;;;14.40;4.60;;;;;;;18.89;99.37;99941.73;104885;1274;74509;-64
2022/08/14 05:14:34;;;;;;;12.10;5.20;;;;;;;19.06;98.57;99938.59;104814;1274;66855;-66
2022/08/14 05:17:42;;;;;;;12.80;4.60;;;;;;;19.22;97.48;99942.46;104837;1274;72051;-64
2022/08/14 05:20:53;;;;;;;16.60;6.70;;;;;;;19.40;96.73;99941.34;104515;1275;61253;-65
2022/08/14 05:24:02;;;;;;;9.20;4.70;;;;;;;19.59;95.64;99944.92;104855;1274;60579;-68
2022/08/14 05:26:50;;;;;;;10.90;3.90;;;;;;;19.79;94.59;99942.63;103769;1274;1546257;-68
2022/08/14 05:29:43;;;;;;;13.90;4.50;;;;;;;20.08;93.48;99943.68;104793;1274;68805;-67
2022/08/14 05:32:31;;;;;;;10.70;4.50;;;;;;;20.56;91.23;99934.01;104572;1274;72400;-68
2022/08/14 05:35:21;;;;;;;10.30;4.10;;;;;;;21.40;88.00;99935.98;104609;1274;60445;-67
2022/08/14 05:38:12;;;;;;;9.60;4.10;;;;;;;22.42;82.86;99932.28;104615;1274;60462;-66
2022/08/14 05:41:18;;;;;;;18.80;10.40;;;;;;;23.70;77.71;99933.91;104585;1274;74707;-66
2022/08/14 05:44:08;;;;;;;22.40;13.30;;;;;;;24.75;71.92;99930.14;104601;1274;67402;-69
2022/08/14 05:46:57;;;;;;;9.30;3.90;;;;;;;25.74;68.15;99922.30;104623;1274;73204;-65
2022/08/14 05:49:47;;;;;;;18.20;11.20;;;;;;;26.72;64.88;99918.18;104589;1274;60579;-71
2022/08/14 05:52:36;;;;;;;10.60;3.70;;;;;;;27.60;59.98;99919.43;104630;1274;61140;-68
2022/08/14 05:55:35;;;;;;;9.20;3.40;;;;;;;28.50;57.31;99920.41;104751;1274;74535;-69
2022/08/14 05:58:30;;;;;;;9.40;2.80;;;;;;;29.35;53.63;99918.39;104846;1274;69102;-66
2022/08/14 06:01:28;;;;;;;12.40;4.10;;;;;;;29.93;50.55;99916.45;104590;1274;73694;-67
2022/08/14 06:04:18;;;;;;;11.80;3.40;;;;;;;30.36;48.98;99917.78;104825;1274;60476;-67
2022/08/14 06:07:08;;;;;;;9.80;3.30;;;;;;;30.70;47.60;99916.48;104615;1274;60532;-70
2022/08/14 06:09:56;;;;;;;10.10;2.40;;;;;;;31.00;46.11;99916.21;104779;1274;74682;-68
2022/08/14 06:12:51;;;;;;;8.80;2.40;;;;;;;31.31;44.86;99918.86;104772;1274;68704;-69
2022/08/14 06:15:52;;;;;;;10.60;3.20;;;;;;;31.67;44.26;99922.20;104620;1276;72793;-69
2022/08/14 06:18:40;;;;;;;9.30;2.60;;;;;;;31.96;42.67;99919.34;104582;1275;60604;-67
2022/08/14 06:21:29;;;;;;;9.90;3.20;;;;;;;32.32;42.09;99920.58;104631;1274;60473;-66
2022/08/14 06:24:19;;;;;;;10.90;2.60;;;;;;;32.72;41.08;99922.85;104657;1274;74941;-67
2022/08/14 06:27:08;;;;;;;9.50;2.70;;;;;;;33.07;40.29;99916.99;104622;1274;69084;-66
2022/08/14 06:29:57;;;;;;;12.90;2.30;;;;;;;33.25;39.47;99910.71;104428;1276;73429;-69
2022/08/14 06:32:46;;;;;;;7.60;2.20;;;;;;;33.52;38.70;99909.08;104800;1276;61091;-68
2022/08/14 06:35:39;;;;;;;8.70;2.30;;;;;;;33.86;38.17;99909.23;104733;1275;60462;-68
2022/08/14 06:38:27;;;;;;;10.80;2.70;;;;;;;34.21;37.20;99910.10;104602;1276;74597;-67
2022/08/14 06:41:16;;;;;;;8.40;2.60;;;;;;;34.47;36.66;99910.98;104583;1276;68677;-70
2022/08/14 06:44:08;;;;;;;9.60;2.60;;;;;;;34.76;35.82;99910.74;104559;1275;74473;-71
2022/08/14 06:46:56;;;;;;;11.70;2.50;;;;;;;35.12;35.51;99910.10;104435;1274;60552;-65
2022/08/14 06:49:44;;;;;;;8.10;1.90;;;;;;;35.38;34.47;99907.17;104710;1274;60311;-63
2022/08/14 06:52:45;;;;;;;10.70;2.60;;;;;;;35.58;33.94;99900.31;104324;1276;74743;-67
2022/08/14 06:55:37;;;;;;;9.90;2.30;;;;;;;35.74;33.85;99901.16;104583;1274;68510;-66
2022/08/14 06:58:45;;;;;;;8.70;2.10;;;;;;;36.06;33.16;99901.08;104627;1274;74292;-67
2022/08/14 07:07:52;;;;;;;11.10;1.90;;;;;;;36.39;32.08;99898.39;104635;1274;74751;-68
2022/08/14 07:10:42;;;;;;;7.60;2.00;;;;;;;36.73;31.24;99898.61;105466;1274;68176;-69
2022/08/14 07:13:31;;;;;;;8.40;1.90;;;;;;;36.88;30.72;99895.38;104935;1274;73950;-67
2022/08/14 07:16:19;;;;;;;7.70;2.50;;;;;;;37.03;30.36;99890.45;104627;1276;60549;-66
2022/08/14 07:19:17;;;;;;;7.20;1.90;;;;;;;37.27;29.82;99888.31;104920;1274;62051;-69
2022/08/14 07:22:07;;;;;;;10.40;2.30;;;;;;;37.29;29.47;99888.02;104461;1274;74961;-66
2022/08/14 07:25:08;;;;;;;7.60;2.30;;;;;;;37.33;29.33;99887.52;104651;1274;67995;-66
2022/08/14 07:27:56;;;;;;;11.90;2.50;;;;;;;37.42;29.16;99882.70;104644;1274;74847;-69
2022/08/14 07:30:46;;;;;;;8.70;1.80;;;;;;;37.68;28.86;99879.73;104618;1276;60573;-70
2022/08/14 07:33:43;;;;;;;8.70;1.70;;;;;;;37.59;28.68;99878.06;104833;1276;60578;-69
2022/08/14 07:36:36;;;;;;;7.40;2.20;;;;;;;37.56;28.69;99877.45;104606;1276;75673;-67
2022/08/14 07:39:45;;;;;;;12.10;2.10;;;;;;;37.64;28.91;99875.77;104883;1276;66840;-69
2022/08/14 07:42:35;;;;;;;8.60;2.00;;;;;;;37.89;28.79;99878.27;104596;1277;72471;-69
2022/08/14 07:45:28;;;;;;;8.20;1.90;;;;;;;38.19;28.17;99874.80;104651;1274;60591;-68
2022/08/14 07:48:18;;;;;;;11.00;2.10;;;;;;;38.27;27.75;99871.77;104622;1274;60475;-70
2022/08/14 07:51:12;;;;;;;10.20;2.00;;;;;;;38.22;27.41;99872.63;104587;1274;75359;-69
2022/08/14 07:54:01;;;;;;;6.70;1.70;;;;;;;38.27;27.25;99874.11;104718;1274;69795;-68
2022/08/14 07:56:49;;;;;;;8.00;1.80;;;;;;;38.25;26.83;99873.73;104667;1274;72606;-70
2022/08/14 07:59:43;;;;;;;7.80;2.00;;;;;;;38.27;26.86;99872.93;104576;1274;60355;-67
2022/08/14 08:02:38;;;;;;;8.60;2.00;;;;;;;38.41;26.79;99871.65;104714;1274;61449;-69
2022/08/14 08:05:27;;;;;;;7.60;2.00;;;;;;;38.52;26.66;99871.50;104597;1275;75486;-68
2022/08/14 08:08:18;;;;;;;10.80;2.40;;;;;;;38.67;26.60;99874.80;104681;1274;68618;-68
2022/08/14 08:11:14;;;;;;;8.00;2.10;;;;;;;38.92;26.49;99869.30;104747;1275;72145;-67
2022/08/14 08:14:06;;;;;;;6.50;1.60;;;;;;;38.98;26.43;99867.33;104572;1276;60500;-70
2022/08/14 08:17:05;;;;;;;6.70;1.60;;;;;;;38.89;25.58;99864.64;104609;1274;60383;-68
2022/08/14 08:19:53;;;;;;;6.50;1.60;;;;;;;38.95;25.93;99863.45;104497;1276;75189;-68
2022/08/14 08:22:41;;;;;;;8.40;1.60;;;;;;;39.11;25.58;99864.16;104525;1276;67185;-67
2022/08/14 08:25:38;;;;;;;8.20;1.70;;;;;;;39.01;24.83;99854.69;104404;1276;74490;-68
2022/08/14 08:28:58;;;;;;;9.40;1.90;;;;;;;39.16;25.24;99849.29;104386;1276;60465;-69
2022/08/14 08:31:51;;;;;;;9.30;1.60;;;;;;;39.26;24.85;99851.04;104509;1276;61104;-68
2022/08/14 08:34:45;;;;;;;7.70;2.30;;;;;;;39.31;24.37;99849.47;104577;1276;73312;-66
2022/08/14 08:37:35;;;;;;;7.80;2.10;;;;;;;39.12;24.25;99847.80;104342;1276;66520;-70
2022/08/14 08:40:35;;;;;;;6.40;1.60;;;;;;;39.12;24.50;99846.19;104521;1276;73389;-70
2022/08/14 08:43:33;;;;;;;6.30;1.50;;;;;;;38.99;23.97;99845.00;104409;1276;60603;-69
2022/08/14 08:46:22;;;;;;;8.40;1.70;;;;;;;38.92;24.18;99848.11;104397;1276;62093;-66
2022/08/14 08:49:10;;;;;;;7.50;1.80;;;;;;;39.05;23.68;99847.80;104609;1276;74615;-69
2022/08/14 08:52:04;;;;;;;8.90;1.80;;;;;;;39.28;23.91;99851.14;104527;1276;68112;-68
2022/08/14 08:54:53;;;;;;;7.00;1.70;;;;;;;39.33;23.68;99850.35;104580;1276;72619;-70
2022/08/14 08:57:42;;;;;;;7.70;2.00;;;;;;;39.38;23.67;99850.68;104529;1276;60604;-68
2022/08/14 09:00:35;;;;;;;6.30;1.60;;;;;;;39.17;23.31;99850.58;104581;1276;60532;-68
2022/08/14 09:03:30;;;;;;;7.70;1.70;;;;;;;38.98;23.23;99848.52;104520;1276;74826;-69
2022/08/14 09:06:19;;;;;;;8.00;1.90;;;;;;;38.92;23.53;99848.33;104492;1276;67628;-69
2022/08/14 09:09:32;;;;;;;6.80;1.70;;;;;;;38.66;23.42;99840.48;104759;1276;74041;-70
2022/08/14 09:12:41;;;;;;;7.40;1.60;;;;;;;38.62;23.73;99841.55;104667;1276;60599;-68
2022/08/14 09:15:33;;;;;;;7.40;1.60;;;;;;;38.87;23.71;99835.35;104873;1276;61022;-69
2022/08/14 09:18:29;;;;;;;6.40;1.60;;;;;;;38.98;23.24;99834.02;104501;1274;75105;-68
2022/08/14 09:21:18;;;;;;;9.60;2.00;;;;;;;39.19;23.37;99827.75;104468;1277;66955;-66
2022/08/14 09:24:08;;;;;;;6.80;1.30;;;;;;;39.41;23.24;99818.15;104629;1276;74474;-64
2022/08/14 09:27:16;;;;;;;7.10;1.90;;;;;;;39.30;23.52;99815.81;104719;1274;60493;-72
2022/08/14 09:30:10;;;;;;;7.90;1.70;;;;;;;39.30;23.21;99811.70;104672;1275;60491;-73
2022/08/14 09:33:59;;;;;;;7.60;1.50;;;;;;;39.39;22.78;99808.58;104602;1277;73267;-72
2022/08/14 09:37:18;;;;;;;7.90;1.70;;;;;;;39.46;22.50;99799.42;104749;1275;68664;-72
2022/08/14 09:40:25;;;;;;;7.10;1.50;;;;;;;39.36;22.62;99796.35;105312;1274;74499;-73
2022/08/14 09:43:44;;;;;;;9.40;1.70;;;;;;;39.26;22.66;99787.27;104756;1275;60464;-71
2022/08/14 09:46:35;;;;;;;8.20;1.70;;;;;;;39.13;23.05;99783.64;104901;1274;61941;-73
2022/08/14 09:49:37;;;;;;;6.80;1.70;;;;;;;39.03;23.43;99784.33;104752;1275;74477;-72
2022/08/14 09:52:27;;;;;;;6.90;1.50;;;;;;;39.07;23.30;99778.39;104658;1275;69565;-70
2022/08/14 09:55:24;;;;;;;6.10;1.30;;;;;;;38.96;22.53;99779.61;104653;1276;73783;-73
2022/08/14 09:58:18;;;;;;;7.60;1.80;;;;;;;38.85;22.94;99780.89;104637;1276;60442;-72
2022/08/14 10:01:19;;;;;;;7.90;1.80;;;;;;;38.44;22.68;99774.42;104898;1275;61908;-72
2022/08/14 10:04:31;;;;;;;6.40;1.70;;;;;;;38.41;23.08;99777.80;104577;1277;75548;-74
2022/08/14 10:07:34;;;;;;;7.90;1.30;;;;;;;38.49;23.11;99778.43;104935;1274;66694;-73
2022/08/14 10:10:36;;;;;;;6.50;1.70;;;;;;;38.69;22.89;99776.39;104545;1274;73736;-73
2022/08/14 10:13:25;;;;;;;6.70;1.90;;;;;;;38.73;23.03;99778.61;104667;1274;60606;-73
2022/08/14 10:16:43;;;;;;;6.50;1.70;;;;;;;38.70;22.91;99781.55;104773;1274;61468;-68
2022/08/14 10:19:32;;;;;;;6.20;1.70;;;;;;;38.85;22.74;99776.09;104740;1276;74172;-66
2022/08/14 10:22:29;;;;;;;8.60;4.10;;;;;;;39.12;22.72;99769.92;104628;1276;68605;-66
2022/08/14 10:25:47;;;;;;;8.70;2.20;;;;;;;39.32;22.46;99763.27;104797;1276;73394;-71
2022/08/14 10:28:42;;;;;;;9.40;2.80;;;;;;;39.22;22.10;99755.70;104573;1276;60456;-73
2022/08/14 10:32:00;;;;;;;7.70;2.40;;;;;;;38.77;22.68;99747.86;104908;1276;60418;-75
2022/08/14 10:34:49;;;;;;;9.30;2.40;;;;;;;38.58;23.24;99743.39;104649;1277;75542;-72
2022/08/14 10:37:45;;;;;;;9.50;2.00;;;;;;;38.14;23.78;99737.74;104649;1276;69582;-73
2022/08/14 10:40:35;;;;;;;8.60;1.90;;;;;;;37.66;24.33;99734.48;104630;1277;73582;-75
2022/08/14 10:43:31;;;;;;;7.40;1.70;;;;;;;37.19;25.10;99724.46;105041;1277;60469;-74
2022/08/14 10:46:22;;;;;;;9.50;3.70;;;;;;;37.29;25.35;99720.95;104535;1276;60343;-73
2022/08/14 10:49:31;;;;;;;7.20;2.40;;;;;;;37.41;24.65;99727.19;104902;1276;75673;-72
2022/08/14 10:52:26;;;;;;;8.00;1.80;;;;;;;37.44;24.65;99722.08;104628;1276;68377;-69
2022/08/14 10:55:18;;;;;;;9.20;1.80;;;;;;;37.39;24.49;99722.95;104471;1276;73741;-70
2022/08/14 10:58:12;;;;;;;7.30;1.70;;;;;;;37.56;24.54;99722.50;104572;1276;60374;-73
2022/08/14 11:01:06;;;;;;;6.50;1.90;;;;;;;37.77;24.28;99722.93;104555;1276;60535;-72
2022/08/14 11:03:55;;;;;;;6.80;1.80;;;;;;;37.78;24.24;99720.58;104613;1276;74498;-69
2022/08/14 11:06:55;;;;;;;8.00;1.90;;;;;;;37.92;23.95;99723.13;104601;1276;68553;-72
2022/08/14 11:09:58;;;;;;;9.40;1.70;;;;;;;38.09;23.86;99719.59;104882;1276;73942;-72
2022/08/14 11:12:49;;;;;;;7.00;1.70;;;;;;;38.20;24.18;99722.62;104606;1276;60404;-72
2022/08/14 11:15:37;;;;;;;6.40;2.00;;;;;;;38.47;24.05;99719.33;104639;1274;60772;-72
2022/08/14 11:18:32;;;;;;;7.40;1.80;;;;;;;38.64;23.62;99715.77;104670;1274;74555;-74
2022/08/14 11:21:28;;;;;;;6.60;1.60;;;;;;;38.56;23.90;99714.51;104838;1275;67289;-74
2022/08/14 11:24:22;;;;;;;7.50;1.80;;;;;;;38.22;24.22;99716.31;104688;1277;73278;-74
2022/08/14 11:27:32;;;;;;;9.50;2.30;;;;;;;38.09;24.52;99715.09;104511;1275;60523;-72
2022/08/14 11:30:26;;;;;;;7.50;2.50;;;;;;;37.58;24.81;99711.69;104636;1275;60525;-72
2022/08/14 11:33:36;;;;;;;11.10;5.60;;;;;;;37.03;25.68;99709.94;104653;1275;75357;-73
2022/08/14 11:36:28;;;;;;;8.30;2.20;;;;;;;36.79;26.26;99702.75;104864;1274;67050;-72
2022/08/14 11:39:36;;;;;;;15.80;13.00;;;;;;;36.36;26.65;99699.33;104941;1275;71922;-73
2022/08/14 11:42:28;;;;;;;8.00;3.80;;;;;;;36.03;27.62;99704.05;104661;1274;60600;-72
2022/08/14 11:45:39;;;;;;;8.40;2.10;;;;;;;35.52;28.11;99701.79;104511;1275;60735;-72
2022/08/14 11:48:28;;;;;;;9.30;2.90;;;;;;;35.06;28.68;99699.98;104519;1274;75605;-71
2022/08/14 11:51:36;;;;;;;8.30;2.40;;;;;;;34.58;29.45;99697.39;104896;1275;69489;-72
2022/08/14 11:54:41;;;;;;;7.80;2.20;;;;;;;34.20;30.03;99694.12;104664;1275;72283;-74
2022/08/14 11:57:31;;;;;;;9.80;3.00;;;;;;;33.84;31.16;99691.91;104674;1274;60476;-74
2022/08/14 12:00:19;;;;;;;8.70;2.20;;;;;;;33.27;32.36;99689.05;104506;1275;60521;-73
2022/08/14 12:03:18;;;;;;;8.20;2.40;;;;;;;32.56;33.59;99684.34;104913;1275;74877;-73
2022/08/14 12:06:27;;;;;;;7.10;2.60;;;;;;;32.02;34.53;99685.12;104796;1274;68553;-71
2022/08/14 12:09:31;;;;;;;8.10;2.30;;;;;;;31.37;35.93;99689.16;104658;1274;73438;-70
2022/08/14 12:12:20;;;;;;;7.20;2.50;;;;;;;30.85;37.25;99691.11;104519;1274;60580;-72
2022/08/14 12:15:37;;;;;;;7.50;2.30;;;;;;;30.43;38.50;99686.23;104915;1274;60493;-71
2022/08/14 12:18:35;;;;;;;7.10;2.30;;;;;;;30.09;39.06;99688.24;104577;1277;75401;-72
2022/08/14 12:21:24;;;;;;;7.20;2.30;;;;;;;29.80;40.20;99681.85;104601;1277;69979;-72
2022/08/14 12:24:27;;;;;;;8.10;2.40;;;;;;;29.57;40.79;99681.30;104502;1276;74420;-70
2022/08/14 12:27:54;;;;;;;9.50;2.40;;;;;;;29.50;41.09;99677.73;104870;1276;60580;-70
2022/08/14 12:30:47;;;;;;;6.70;2.20;;;;;;;29.39;41.32;99677.76;104543;1276;60609;-71
2022/08/14 12:33:58;;;;;;;8.60;2.80;;;;;;;29.28;41.62;99676.36;105000;1276;73218;-72
2022/08/14 12:36:46;;;;;;;8.40;3.20;;;;;;;29.22;42.32;99669.63;104813;1276;68664;-70
2022/08/14 12:39:36;;;;;;;10.80;2.70;;;;;;;29.23;42.28;99671.77;104833;1276;74402;-74
2022/08/14 12:42:36;;;;;;;7.90;2.90;;;;;;;29.16;42.40;99666.13;104640;1276;60448;-71
2022/08/14 12:45:34;;;;;;;7.90;2.70;;;;;;;29.19;42.77;99665.57;104648;1277;61447;-72
2022/08/14 12:48:25;;;;;;;9.70;3.10;;;;;;;29.25;42.29;99657.34;104863;1276;73270;-71
2022/08/14 12:51:24;;;;;;;8.80;3.40;;;;;;;29.26;41.97;99655.34;104587;1276;69592;-72
2022/08/14 12:54:17;;;;;;;7.80;2.80;;;;;;;29.24;41.72;99651.73;104781;1276;75829;-72
2022/08/14 12:57:15;;;;;;;7.00;3.10;;;;;;;29.18;42.05;99645.67;104825;1275;60510;-74
2022/08/14 13:00:21;;;;;;;7.40;3.00;;;;;;;29.12;42.26;99639.66;104866;1276;60542;-73
2022/08/14 13:03:24;;;;;;;8.20;3.40;;;;;;;29.06;42.50;99633.12;104585;1277;74449;-74
2022/08/14 13:06:15;;;;;;;8.10;3.10;;;;;;;28.98;42.82;99630.20;104498;1276;68964;-74
2022/08/14 13:09:05;;;;;;;8.70;3.40;;;;;;;28.90;43.07;99628.22;104868;1276;73363;-71
2022/08/14 13:12:03;;;;;;;7.50;3.00;;;;;;;28.72;43.78;99623.74;104562;1276;60514;-72
2022/08/14 13:15:16;;;;;;;9.00;3.20;;;;;;;28.46;44.22;99619.14;104617;1276;61836;-71
2022/08/14 13:18:09;;;;;;;11.10;3.20;;;;;;;28.33;44.85;99620.40;104897;1275;75373;-73
2022/08/14 13:21:00;;;;;;;9.70;3.50;;;;;;;28.25;45.03;99616.83;104623;1277;67715;-73
2022/08/14 13:23:49;;;;;;;9.80;3.60;;;;;;;28.19;45.28;99613.27;104640;1274;73447;-73
2022/08/14 13:26:46;;;;;;;8.90;4.00;;;;;;;28.14;45.72;99606.31;104605;1274;60477;-70
2022/08/14 13:29:40;;;;;;;10.10;3.20;;;;;;;28.11;46.03;99601.86;104640;1274;61266;-70
2022/08/14 13:32:39;;;;;;;9.60;3.50;;;;;;;28.08;46.49;99600.88;104519;1276;74547;-73
2022/08/14 13:35:27;;;;;;;11.90;4.20;;;;;;;28.06;46.82;99599.36;104592;1274;69369;-69
2022/08/14 13:38:20;;;;;;;9.80;3.90;;;;;;;28.01;47.08;99591.73;104511;1274;74519;-71
2022/08/14 13:41:10;;;;;;;9.30;3.80;;;;;;;27.94;47.41;99583.04;104664;1274;60502;-71
2022/08/14 13:43:59;;;;;;;8.00;3.90;;;;;;;27.94;47.44;99579.55;104617;1277;60542;-74
2022/08/14 13:46:48;;;;;;;10.50;4.20;;;;;;;27.99;47.69;99575.94;104640;1275;74703;-71
2022/08/14 13:49:38;;;;;;;7.80;3.70;;;;;;;27.98;47.81;99578.85;104665;1274;66795;-72
2022/08/14 13:52:54;;;;;;;11.20;3.70;;;;;;;27.93;48.00;99577.06;104724;1277;73459;-72